Time;durP1;ratioP1;P1;durP2;ratioP2;P2;SDS_P1;SDS_P2;PMS_P1;PMS_P2;Temp;Humidity;BMP_temperature;BMP_pressure;BME280_temperature;BME280_humidity;BME280_pressure;Samples;Min_cycle;Max_cycle;Signal;HPM_P1;HPM_P2
2021/12/02 00:00:55;;;;;;;4.62;3.15;;;;;;;10.01;58.83;97418.38;2253065;85;26407;-77
2021/12/02 00:04:16;;;;;;;5.03;3.52;;;;;;;10.04;58.88;97418.31;2258902;87;25771;-78
2021/12/02 00:07:55;;;;;;;4.55;4.15;;;;;;;10.04;58.92;97429.58;2260726;87;31028;-78
2021/12/02 00:11:17;;;;;;;4.50;3.17;;;;;;;10.05;58.87;97434.33;2308246;85;32138;-79
2021/12/02 00:14:44;;;;;;;4.80;3.45;;;;;;;10.08;58.85;97429.06;2312301;85;25461;-78
2021/12/02 00:21:33;;;;;;;3.12;2.85;;;;;;;10.11;58.90;97427.70;2268563;87;25226;-79
2021/12/02 00:25:01;;;;;;;6.10;3.92;;;;;;;10.12;58.93;97420.30;2268443;87;25695;-78
2021/12/02 00:28:26;;;;;;;3.92;3.30;;;;;;;10.13;58.96;97413.77;2262237;87;25888;-78
2021/12/02 00:31:50;;;;;;;7.92;2.98;;;;;;;10.15;58.96;97399.41;2253775;87;26068;-77
2021/12/02 00:35:18;;;;;;;3.85;3.45;;;;;;;10.17;59.01;97402.84;2256866;87;25702;-78
2021/12/02 00:39:03;;;;;;;3.35;2.90;;;;;;;10.16;58.95;97399.39;2294921;85;25732;-79
2021/12/02 00:42:40;;;;;;;4.85;3.72;;;;;;;10.20;58.99;97398.02;2300398;84;25836;-79
2021/12/02 00:46:35;;;;;;;4.45;3.08;;;;;;;10.19;58.95;97389.33;2277756;85;25790;-78
2021/12/02 00:50:01;;;;;;;5.05;3.08;;;;;;;10.21;58.98;97384.10;2229574;86;25833;-78
2021/12/02 00:54:00;;;;;;;5.83;3.25;;;;;;;10.24;58.99;97398.35;2274401;85;25776;-77
2021/12/02 00:57:35;;;;;;;3.17;2.67;;;;;;;10.26;58.99;97388.36;2272130;85;25680;-77
2021/12/02 01:00:57;;;;;;;4.35;2.98;;;;;;;10.28;58.97;97406.53;2324372;84;25595;-79
2021/12/02 01:04:23;;;;;;;3.25;2.85;;;;;;;10.29;58.99;97385.69;2321045;83;25694;-80
2021/12/02 01:07:49;;;;;;;4.92;2.52;;;;;;;10.32;58.99;97392.55;2322095;83;25560;-79
2021/12/02 01:11:10;;;;;;;4.03;2.77;;;;;;;10.32;58.98;97387.34;2327150;84;25648;-77
2021/12/02 01:14:33;;;;;;;4.22;2.62;;;;;;;10.33;58.96;97387.32;2310566;83;25707;-77
2021/12/02 01:18:00;;;;;;;4.85;2.75;;;;;;;10.35;58.96;97392.02;2329624;84;30368;-79
2021/12/02 01:21:26;;;;;;;3.83;2.50;;;;;;;10.37;58.93;97389.41;2317244;84;25219;-79
2021/12/02 01:24:52;;;;;;;3.17;2.10;;;;;;;10.39;58.91;97397.59;2329093;84;25497;-78
2021/12/02 01:28:46;;;;;;;2.33;2.12;;;;;;;10.40;58.93;97391.94;2319710;84;25679;-78
2021/12/02 01:32:32;;;;;;;3.20;2.45;;;;;;;10.41;58.86;97391.03;2228876;86;25783;-79
2021/12/02 01:36:12;;;;;;;3.50;2.15;;;;;;;10.44;58.84;97388.81;2245494;87;25720;-79
2021/12/02 01:39:41;;;;;;;3.25;2.72;;;;;;;10.45;58.82;97395.72;2210974;87;25737;-78
2021/12/02 01:43:02;;;;;;;4.00;2.83;;;;;;;10.46;58.78;97380.08;2237867;85;26145;-77
2021/12/02 01:46:39;;;;;;;2.27;1.83;;;;;;;10.49;58.77;97393.45;2239812;87;29109;-78
2021/12/02 01:50:22;;;;;;;2.70;2.42;;;;;;;10.49;58.76;97383.88;2221969;86;25774;-77
2021/12/02 01:54:20;;;;;;;3.58;2.42;;;;;;;10.50;58.73;97373.89;2233505;86;25791;-77
2021/12/02 01:57:50;;;;;;;2.72;2.00;;;;;;;10.50;58.70;97379.55;2305399;83;25752;-78
2021/12/02 02:01:16;;;;;;;2.75;1.98;;;;;;;10.52;58.67;97386.41;2331552;84;25737;-79
2021/12/02 02:04:38;;;;;;;2.55;1.60;;;;;;;10.52;58.68;97375.14;2329196;84;25250;-78
2021/12/02 02:08:13;;;;;;;2.45;2.12;;;;;;;10.51;58.64;97382.11;2308634;84;26052;-79
2021/12/02 02:11:34;;;;;;;2.80;1.90;;;;;;;10.53;58.63;97363.83;2331491;84;25674;-79
2021/12/02 02:14:56;;;;;;;2.87;1.92;;;;;;;10.55;58.59;97383.73;2331226;84;25717;-78
2021/12/02 02:18:21;;;;;;;3.27;2.20;;;;;;;10.55;58.58;97368.11;2321648;83;25720;-80
2021/12/02 02:21:43;;;;;;;3.42;1.82;;;;;;;10.57;58.56;97372.84;2320796;83;25656;-79
2021/12/02 02:25:10;;;;;;;4.12;1.70;;;;;;;10.60;58.52;97375.83;2326640;84;25661;-77
2021/12/02 02:28:29;;;;;;;2.85;1.95;;;;;;;10.61;58.50;97381.44;2324525;84;26051;-77
2021/12/02 02:31:50;;;;;;;4.33;1.87;;;;;;;10.63;58.44;97390.05;2331111;83;25601;-78
2021/12/02 02:35:15;;;;;;;2.47;1.92;;;;;;;10.63;58.42;97390.05;2324321;84;25655;-78
2021/12/02 02:38:56;;;;;;;2.00;1.67;;;;;;;10.63;58.41;97390.05;2330720;84;25644;-78
2021/12/02 02:42:23;;;;;;;3.80;2.15;;;;;;;10.63;58.39;97386.14;2323019;84;25984;-78
2021/12/02 02:45:51;;;;;;;2.20;1.80;;;;;;;10.62;58.37;97383.14;2311706;83;26076;-79
2021/12/02 02:49:25;;;;;;;3.25;2.05;;;;;;;10.60;58.38;97375.38;2316833;84;25668;-78
2021/12/02 02:52:46;;;;;;;2.92;1.75;;;;;;;10.59;58.35;97378.00;2238379;87;26293;-77
2021/12/02 02:56:29;;;;;;;2.50;1.80;;;;;;;10.62;58.34;97364.45;2247344;86;26161;-78
2021/12/02 03:00:13;;;;;;;3.55;1.90;;;;;;;10.62;58.34;97371.42;2244068;86;26197;-78
2021/12/02 03:11:03;;;;;;;1.75;1.55;;;;;;;10.63;58.30;97354.89;2247379;87;25812;-80
2021/12/02 03:18:04;;;;;;;1.40;1.17;;;;;;;10.60;58.25;97338.91;2254716;87;25768;-78
2021/12/02 03:21:32;;;;;;;1.70;1.52;;;;;;;10.62;58.27;97353.19;2252923;87;25901;-78
2021/12/02 03:24:52;;;;;;;2.72;2.08;;;;;;;10.62;58.25;97359.25;2249672;87;25984;-78
2021/12/02 03:28:41;;;;;;;2.72;2.22;;;;;;;10.62;58.24;97350.58;2242546;84;29958;-78
2021/12/02 03:32:10;;;;;;;3.70;2.80;;;;;;;10.61;58.21;97350.19;2279417;84;31002;-80
2021/12/02 03:35:34;;;;;;;3.12;2.83;;;;;;;10.59;58.21;97349.36;2301580;85;25841;-78
2021/12/02 03:38:57;;;;;;;5.00;3.00;;;;;;;10.58;58.23;97343.75;2306146;84;26301;-78
2021/12/02 03:42:20;;;;;;;3.15;2.60;;;;;;;10.58;58.23;97348.95;2311764;84;26231;-80
2021/12/02 03:45:45;;;;;;;3.15;2.25;;;;;;;10.57;58.21;97349.86;2310955;84;25688;-78
2021/12/02 03:49:07;;;;;;;2.40;2.12;;;;;;;10.57;58.22;97339.44;2316062;85;25639;-77
2021/12/02 03:52:28;;;;;;;2.47;1.87;;;;;;;10.57;58.19;97345.95;2314145;85;25644;-79
2021/12/02 03:55:53;;;;;;;2.25;1.80;;;;;;;10.57;58.20;97348.11;2317431;85;29092;-79
2021/12/02 03:59:17;;;;;;;5.95;2.37;;;;;;;10.56;58.16;97345.10;2316424;84;25843;-78
2021/12/02 04:02:38;;;;;;;2.77;2.50;;;;;;;10.57;58.14;97342.05;2312960;85;25742;-77
2021/12/02 04:06:12;;;;;;;2.17;1.82;;;;;;;10.55;58.11;97345.97;2309801;84;29734;-77
2021/12/02 04:09:44;;;;;;;1.90;1.57;;;;;;;10.54;58.07;97353.39;2311543;84;25689;-81
2021/12/02 04:13:32;;;;;;;2.37;1.95;;;;;;;10.56;58.02;97352.03;2307829;84;25998;-79
2021/12/02 04:16:58;;;;;;;2.30;1.40;;;;;;;10.53;58.02;97358.20;2311442;84;25738;-79
2021/12/02 04:20:23;;;;;;;2.08;1.10;;;;;;;10.55;57.98;97360.30;2318934;83;25779;-78
2021/12/02 04:24:16;;;;;;;2.72;1.40;;;;;;;10.56;57.92;97355.94;2316832;84;25653;-88
2021/12/02 04:27:51;;;;;;;1.77;1.40;;;;;;;10.55;57.86;97356.84;2297265;84;25751;-78
2021/12/02 04:31:12;;;;;;;1.92;1.02;;;;;;;10.57;57.77;97366.34;2298600;85;25751;-78
2021/12/02 04:34:33;;;;;;;1.90;1.27;;;;;;;10.56;57.66;97362.03;2298610;86;25698;-78
2021/12/02 04:37:54;;;;;;;2.27;1.42;;;;;;;10.57;57.60;97367.64;2297900;86;29959;-77
2021/12/02 04:41:17;;;;;;;1.50;1.15;;;;;;;10.58;57.51;97363.28;2297921;86;26332;-79
2021/12/02 04:44:38;;;;;;;1.52;0.90;;;;;;;10.59;57.40;97375.41;2298415;86;25714;-79
2021/12/02 04:48:04;;;;;;;2.10;1.00;;;;;;;10.60;57.31;97381.05;2297824;84;25823;-79
2021/12/02 04:51:25;;;;;;;1.35;1.00;;;;;;;10.62;57.21;97383.14;2298835;86;25706;-79
2021/12/02 04:54:46;;;;;;;2.47;0.90;;;;;;;10.63;57.11;97397.45;2298936;85;29431;-78
2021/12/02 04:58:12;;;;;;;1.72;1.20;;;;;;;10.63;57.02;97378.33;2298788;85;25617;-79
2021/12/02 05:01:30;;;;;;;1.60;0.90;;;;;;;10.64;56.95;97397.00;2301112;84;26361;-79
2021/12/02 05:04:51;;;;;;;1.57;1.10;;;;;;;10.64;56.90;97391.78;2331193;84;30453;-79
2021/12/02 05:08:12;;;;;;;1.57;1.10;;;;;;;10.63;56.85;97385.73;2331632;84;29739;-79
2021/12/02 05:11:38;;;;;;;1.62;0.88;;;;;;;10.64;56.80;97391.78;2330535;84;29542;-79
2021/12/02 05:15:19;;;;;;;2.12;0.98;;;;;;;10.62;56.73;97385.30;2321188;83;25840;-78
2021/12/02 05:18:43;;;;;;;1.67;0.98;;;;;;;10.64;56.71;97406.11;2317639;83;25554;-78
2021/12/02 05:22:19;;;;;;;2.40;0.88;;;;;;;10.65;56.67;97413.03;2281171;83;25875;-78
2021/12/02 05:25:47;;;;;;;3.55;1.15;;;;;;;10.63;56.59;97413.50;2272859;85;25576;-78
2021/12/02 05:29:07;;;;;;;1.10;1.00;;;;;;;10.64;56.59;97423.90;2269410;85;25910;-79
2021/12/02 05:32:45;;;;;;;1.07;0.70;;;;;;;10.65;56.53;97435.17;2266793;85;25614;-78
2021/12/02 05:36:18;;;;;;;1.37;0.90;;;;;;;10.64;56.49;97438.67;2278130;86;25828;-79
2021/12/02 05:40:04;;;;;;;;;;;;;;;;;;;;;
2021/12/02 05:43:28;;;;;;;1.22;0.70;;;;;;;10.70;56.36;97451.56;2279772;85;25599;-78
2021/12/02 05:50:36;;;;;;;1.15;0.80;;;;;;;10.74;56.27;97477.95;2220818;87;25894;-78
2021/12/02 05:53:57;;;;;;;1.02;0.70;;;;;;;10.76;56.25;97481.35;2226241;88;25697;-79
2021/12/02 05:57:18;;;;;;;1.03;0.70;;;;;;;10.78;56.19;97495.21;2218355;87;28985;-79
2021/12/02 06:00:56;;;;;;;1.45;0.82;;;;;;;10.80;56.09;97497.77;2215674;87;25785;-77
2021/12/02 06:04:34;;;;;;;0.90;0.80;;;;;;;10.81;56.05;97529.02;2178056;88;26397;-78
2021/12/02 06:08:01;;;;;;;4.30;1.02;;;;;;;10.83;55.88;97513.33;2181187;88;25853;-78
2021/12/02 06:11:21;;;;;;;1.10;0.60;;;;;;;10.82;55.85;97525.96;2183198;88;25698;-78
2021/12/02 06:14:42;;;;;;;1.95;1.00;;;;;;;10.83;55.71;97504.21;2179364;88;30477;-79
2021/12/02 06:18:25;;;;;;;1.07;0.60;;;;;;;10.82;55.60;97528.11;2185719;88;30843;-78
2021/12/02 06:21:48;;;;;;;1.10;0.60;;;;;;;10.82;55.54;97527.27;2206812;87;26169;-78
2021/12/02 06:28:55;;;;;;;3.67;0.70;;;;;;;10.81;55.41;97530.31;2235767;88;25867;-78
2021/12/02 06:32:16;;;;;;;3.10;0.78;;;;;;;10.79;55.22;97527.33;2240526;88;25726;-78
2021/12/02 06:35:38;;;;;;;1.02;0.55;;;;;;;10.78;55.17;97542.11;2239210;88;30212;-78
2021/12/02 06:39:05;;;;;;;0.80;0.50;;;;;;;10.79;55.07;97535.15;2233981;88;25686;-78
2021/12/02 06:42:27;;;;;;;1.30;0.55;;;;;;;10.78;55.01;97532.14;2305979;85;25958;-77
2021/12/02 06:45:47;;;;;;;1.07;0.57;;;;;;;10.78;54.91;97547.77;2313867;85;25705;-79
2021/12/02 06:49:08;;;;;;;1.05;0.60;;;;;;;10.78;54.86;97552.98;2298003;85;29487;-79
2021/12/02 06:52:47;;;;;;;2.15;0.75;;;;;;;10.80;54.79;97558.58;2307262;84;30818;-78
2021/12/02 06:56:11;;;;;;;0.42;0.40;;;;;;;10.80;54.67;97557.70;2309703;84;25695;-78
2021/12/02 06:59:32;;;;;;;2.70;1.42;;;;;;;10.79;54.62;97558.15;2317832;85;25912;-77
2021/12/02 07:02:53;;;;;;;2.42;0.50;;;;;;;10.81;54.59;97564.64;2322655;84;25673;-78
2021/12/02 07:06:14;;;;;;;1.52;0.70;;;;;;;10.84;54.54;97560.67;2316865;84;25657;-78
2021/12/02 07:09:35;;;;;;;1.15;0.57;;;;;;;10.90;54.50;97560.53;2321061;85;25607;-78
2021/12/02 07:12:57;;;;;;;0.80;0.50;;;;;;;10.98;54.41;97567.72;2302766;84;31247;-78
2021/12/02 07:16:20;;;;;;;0.98;0.50;;;;;;;11.10;54.31;97592.63;2316860;85;25725;-77
2021/12/02 07:19:41;;;;;;;0.70;0.60;;;;;;;11.19;54.20;97568.11;2318910;84;25782;-79
2021/12/02 07:23:03;;;;;;;1.47;0.90;;;;;;;11.24;54.06;97583.20;2329912;83;25742;-80
2021/12/02 07:26:24;;;;;;;1.35;0.70;;;;;;;11.28;53.96;97577.87;2331527;83;25619;-80
2021/12/02 07:29:46;;;;;;;1.55;0.95;;;;;;;11.63;54.01;97572.66;2331962;84;25638;-79
2021/12/02 07:33:10;;;;;;;4.30;1.00;;;;;;;13.94;52.59;97585.37;2330066;84;26334;-78
2021/12/02 07:36:32;;;;;;;1.60;1.20;;;;;;;15.69;49.91;97602.37;2237330;86;25642;-78
2021/12/02 07:39:55;;;;;;;1.92;1.30;;;;;;;17.41;47.32;97599.48;2291154;84;25712;-79
2021/12/02 07:43:23;;;;;;;2.35;1.15;;;;;;;18.67;45.29;97598.39;2298374;84;25713;-79
2021/12/02 07:46:44;;;;;;;1.30;1.20;;;;;;;19.62;43.47;97595.30;2306090;85;25710;-77
2021/12/02 07:54:13;;;;;;;2.58;2.40;;;;;;;20.58;40.92;97608.59;2198271;87;32734;-79
2021/12/02 07:57:37;;;;;;;;;;;;;;;21.73;39.24;97628.30;2216273;89;25725;-79
2021/12/02 08:01:00;;;;;;;22.90;21.60;;;;;;;22.24;37.97;97633.75;2208616;89;25805;-78
2021/12/02 08:04:30;;;;;;;11.57;10.98;;;;;;;23.27;36.93;97639.44;2200897;89;25880;-78
2021/12/02 08:07:53;;;;;;;3.80;3.60;;;;;;;24.31;35.58;97630.41;2206339;89;26378;-79
2021/12/02 08:11:14;;;;;;;4.70;4.42;;;;;;;25.36;34.09;97641.80;2213313;89;25800;-78
2021/12/02 08:14:38;;;;;;;3.17;2.92;;;;;;;25.90;32.97;97668.99;2202743;87;25728;-78
2021/12/02 08:18:28;;;;;;;1.80;1.45;;;;;;;26.71;32.02;97658.67;2193563;87;26145;-79
2021/12/02 08:21:55;;;;;;;1.67;1.00;;;;;;;27.43;30.91;97679.14;2170306;89;26218;-78
2021/12/02 08:25:17;;;;;;;2.17;1.98;;;;;;;28.04;29.88;97676.84;2190161;90;25905;-80
2021/12/02 08:28:43;;;;;;;2.12;1.80;;;;;;;28.73;29.23;97665.97;2185900;90;25783;-78
2021/12/02 08:32:05;;;;;;;1.47;1.00;;;;;;;29.58;28.26;97662.77;2226011;87;25486;-80
2021/12/02 08:35:34;;;;;;;1.30;0.90;;;;;;;30.19;27.44;97692.17;2261440;87;25642;-79
2021/12/02 08:38:58;;;;;;;1.10;0.93;;;;;;;30.56;26.78;97702.25;2258647;87;25910;-81
2021/12/02 08:42:20;;;;;;;1.10;1.00;;;;;;;30.94;26.29;97699.36;2264269;87;25206;-82
2021/12/02 08:45:53;;;;;;;1.30;0.98;;;;;;;31.38;25.77;97698.80;2247653;87;25733;-80
2021/12/02 08:49:14;;;;;;;1.10;1.00;;;;;;;31.87;25.23;97710.28;2242353;87;26172;-81
2021/12/02 08:52:35;;;;;;;3.40;1.27;;;;;;;32.27;24.73;97736.52;2262818;87;25618;-82
2021/12/02 08:55:56;;;;;;;2.47;1.17;;;;;;;32.55;24.25;97726.29;2273423;86;25687;-81
2021/12/02 08:59:18;;;;;;;2.83;0.72;;;;;;;32.79;23.96;97711.95;2286702;86;25633;-79
2021/12/02 09:02:39;;;;;;;1.37;0.90;;;;;;;32.91;23.76;97716.00;2286649;86;26323;-79
2021/12/02 09:06:00;;;;;;;4.50;1.05;;;;;;;32.85;23.71;97738.27;2276302;85;25677;-77
2021/12/02 09:09:32;;;;;;;3.50;0.85;;;;;;;32.76;23.42;97719.55;2282059;85;25589;-78
2021/12/02 09:12:54;;;;;;;2.60;0.75;;;;;;;32.61;23.16;97721.58;2271077;86;26001;-77
2021/12/02 09:16:16;;;;;;;1.17;0.68;;;;;;;32.34;22.86;97717.31;2273125;85;25714;-77
2021/12/02 09:19:36;;;;;;;2.00;0.80;;;;;;;32.10;22.66;97715.94;2262728;86;26015;-77
2021/12/02 09:27:47;;;;;;;2.00;1.10;;;;;;;31.33;22.93;97719.15;2195195;88;26237;-77
2021/12/02 09:31:05;;;;;;;4.47;0.90;;;;;;;30.86;23.19;97729.74;2177883;88;25780;-79
2021/12/02 09:34:28;;;;;;;2.08;0.90;;;;;;;30.44;23.28;97738.92;2183924;88;25822;-77
2021/12/02 09:38:08;;;;;;;3.52;0.98;;;;;;;30.13;23.59;97719.11;2189354;89;25786;-77
2021/12/02 09:41:46;;;;;;;4.65;1.40;;;;;;;29.89;23.82;97708.95;2183349;88;26205;-76
2021/12/02 09:45:08;;;;;;;0.80;0.80;;;;;;;29.37;24.11;97704.12;2187619;89;26169;-76
2021/12/02 09:48:33;;;;;;;3.17;1.22;;;;;;;28.91;24.46;97712.98;2192039;89;25948;-77
2021/12/02 09:52:13;;;;;;;2.17;0.70;;;;;;;28.97;24.59;97724.98;2186461;89;25695;-78
2021/12/02 09:56:15;;;;;;;1.15;0.70;;;;;;;29.25;24.36;97734.80;2182936;88;25688;-77
2021/12/02 10:07:33;;;;;;;3.02;0.70;;;;;;;29.73;23.76;97753.91;2162781;88;25942;-77
2021/12/02 10:11:14;;;;;;;1.92;1.05;;;;;;;29.91;23.52;97728.97;2179766;89;25562;-77
2021/12/02 10:14:53;;;;;;;3.05;0.68;;;;;;;29.78;23.49;97715.89;2155058;88;25825;-76
2021/12/02 10:22:28;;;;;;;1.22;0.85;;;;;;;29.60;23.43;97735.98;2263295;86;26140;-76
2021/12/02 10:26:00;;;;;;;2.10;0.72;;;;;;;29.86;23.37;97740.98;2263625;86;25718;-77
2021/12/02 10:29:26;;;;;;;1.80;0.90;;;;;;;29.85;23.28;97737.12;2271442;86;25737;-77
2021/12/02 10:32:54;;;;;;;1.32;0.72;;;;;;;29.53;23.21;97726.77;2278703;86;25686;-76
2021/12/02 10:36:39;;;;;;;4.10;0.90;;;;;;;29.09;23.25;97748.84;2278713;86;25629;-80
2021/12/02 10:40:08;;;;;;;1.22;0.70;;;;;;;28.50;23.60;97740.97;2279042;85;25458;-83
2021/12/02 10:43:32;;;;;;;3.08;0.60;;;;;;;27.78;23.99;97741.62;2282345;86;25868;-78
2021/12/02 10:47:02;;;;;;;1.75;0.80;;;;;;;27.28;24.38;97737.03;2281989;86;25804;-78
2021/12/02 10:50:26;;;;;;;2.37;0.75;;;;;;;26.56;24.87;97737.83;2281926;85;25741;-77
2021/12/02 10:54:05;;;;;;;3.15;0.90;;;;;;;25.84;25.55;97722.37;2278770;85;25705;-77
2021/12/02 10:57:29;;;;;;;1.25;1.02;;;;;;;25.13;26.14;97748.94;2281026;86;25713;-75
2021/12/02 11:00:51;;;;;;;1.50;1.07;;;;;;;24.48;26.79;97739.67;2282849;85;25187;-78
2021/12/02 11:04:48;;;;;;;1.95;0.95;;;;;;;24.07;27.30;97744.90;2271882;86;25702;-77
2021/12/02 11:08:27;;;;;;;1.47;0.95;;;;;;;23.60;27.68;97730.55;2159837;90;25740;-75
2021/12/02 11:12:36;;;;;;;2.25;0.90;;;;;;;23.12;27.96;97728.20;2165573;90;25755;-76
2021/12/02 11:16:11;;;;;;;1.98;0.82;;;;;;;22.73;28.08;97744.11;2186599;88;26450;-77
2021/12/02 11:19:52;;;;;;;6.17;1.00;;;;;;;22.35;28.47;97750.67;2180334;89;25760;-77
2021/12/02 11:27:26;;;;;;;2.05;0.90;;;;;;;21.64;29.09;97734.48;2153988;91;26074;-77
2021/12/02 11:30:48;;;;;;;2.22;0.90;;;;;;;21.47;29.40;97740.00;2156003;91;26557;-75
2021/12/02 11:34:12;;;;;;;2.42;0.80;;;;;;;21.50;29.68;97739.78;2165956;91;25518;-78
2021/12/02 11:37:36;;;;;;;1.32;0.72;;;;;;;21.55;29.87;97733.25;2163635;91;25645;-78
2021/12/02 11:41:03;;;;;;;2.75;1.10;;;;;;;21.47;30.10;97738.68;2165381;91;26262;-75
2021/12/02 11:44:24;;;;;;;3.35;1.07;;;;;;;21.23;30.41;97729.48;2158316;87;25781;-75
2021/12/02 11:47:46;;;;;;;1.07;0.70;;;;;;;21.03;30.71;97735.63;2164887;91;25798;-81
2021/12/02 11:51:14;;;;;;;6.87;0.70;;;;;;;20.71;31.00;97741.91;2159526;91;25789;-81
2021/12/02 11:54:36;;;;;;;1.45;0.93;;;;;;;20.41;31.35;97745.86;2161031;91;25459;-77
2021/12/02 11:57:58;;;;;;;1.50;0.90;;;;;;;20.22;31.82;97761.96;2143295;90;25864;-80
2021/12/02 12:01:24;;;;;;;1.67;1.20;;;;;;;20.04;32.09;97762.52;2154169;91;25792;-80
2021/12/02 12:05:05;;;;;;;3.67;0.93;;;;;;;20.09;32.33;97760.95;2185727;88;25842;-77
2021/12/02 12:08:40;;;;;;;1.15;0.88;;;;;;;19.98;32.44;97752.31;2221702;88;25914;-76
2021/12/02 12:12:04;;;;;;;3.45;1.30;;;;;;;19.85;32.10;97755.73;2242546;88;25720;-78
2021/12/02 12:15:45;;;;;;;4.10;2.67;;;;;;;19.69;31.56;97761.86;2236844;87;25679;-76
2021/12/02 12:19:31;;;;;;;2.80;1.30;;;;;;;19.44;31.32;97764.09;2210544;88;25703;-75
2021/12/02 12:22:52;;;;;;;1.52;0.85;;;;;;;18.99;30.59;97763.83;2241679;87;25904;-74
2021/12/02 12:26:21;;;;;;;8.15;0.80;;;;;;;18.40;30.34;97783.55;2220490;88;25671;-76
2021/12/02 12:29:49;;;;;;;3.42;0.93;;;;;;;17.93;30.32;97790.19;2210255;88;25620;-77
2021/12/02 12:33:19;;;;;;;2.70;0.80;;;;;;;17.43;30.49;97781.51;2161477;91;26510;-79
2021/12/02 12:36:43;;;;;;;1.00;0.80;;;;;;;17.13;30.90;97780.27;2196282;88;26387;-79
2021/12/02 12:40:40;;;;;;;7.67;1.00;;;;;;;16.85;30.87;97774.05;2199743;89;25828;-80
2021/12/02 12:44:06;;;;;;;4.12;1.27;;;;;;;16.55;30.93;97789.33;2095293;94;25979;-75
2021/12/02 12:47:52;;;;;;;4.15;2.62;;;;;;;16.26;31.32;97797.48;2068783;92;25764;-79
2021/12/02 12:51:33;;;;;;;4.15;1.60;;;;;;;16.19;31.74;97795.17;2090903;92;25870;-75
2021/12/02 12:55:21;;;;;;;5.80;2.33;;;;;;;16.18;31.98;97794.33;2123773;90;25764;-77
2021/12/02 13:02:54;;;;;;;10.75;2.42;;;;;;;16.11;33.20;97823.08;2008369;96;25814;-77
2021/12/02 13:06:38;;;;;;;4.50;1.47;;;;;;;16.03;33.39;97818.14;2038077;95;25801;-74
2021/12/02 13:10:19;;;;;;;2.55;1.10;;;;;;;15.85;32.91;97820.16;2023327;95;26113;-78
2021/12/02 13:13:46;;;;;;;3.55;1.22;;;;;;;15.66;32.92;97823.96;2031991;93;25796;-76
2021/12/02 13:17:46;;;;;;;4.42;1.10;;;;;;;15.41;32.79;97830.53;2051763;92;25964;-75
2021/12/02 13:21:45;;;;;;;2.42;1.52;;;;;;;15.29;33.02;97836.25;2122656;91;25777;-76
2021/12/02 13:25:36;;;;;;;3.40;1.47;;;;;;;15.10;32.97;97839.97;2146999;90;25714;-78
2021/12/02 13:29:01;;;;;;;15.28;6.17;;;;;;;14.96;33.16;97839.61;2103658;91;26520;-76
2021/12/02 13:32:22;;;;;;;8.88;5.75;;;;;;;15.02;33.53;97853.83;2143969;90;25971;-80
2021/12/02 13:36:11;;;;;;;16.15;8.15;;;;;;;15.13;33.49;97852.14;2124747;91;31769;-75
2021/12/02 13:39:48;;;;;;;;;;;;;;;15.17;33.23;97848.48;2133254;91;25773;-79
2021/12/02 13:43:00;;;;;;;7.83;6.12;;;;;;;15.19;33.25;97867.67;2120112;91;25877;-76
2021/12/02 13:46:59;;;;;;;9.13;5.45;;;;;;;15.05;33.11;97865.50;2167259;88;25940;-77
2021/12/02 13:50:31;;;;;;;9.98;6.12;;;;;;;14.85;32.96;97879.33;2176680;87;26013;-77
2021/12/02 13:53:57;;;;;;;35.75;19.87;;;;;;;14.60;32.91;97874.87;2182153;89;26079;-75
2021/12/02 13:57:45;;;;;;;22.05;11.43;;;;;;;14.47;33.41;97899.73;2183833;89;25882;-77
2021/12/02 14:01:13;;;;;;;14.30;7.60;;;;;;;14.23;33.20;97886.09;2277451;85;26175;-75
2021/12/02 14:04:50;;;;;;;10.35;7.05;;;;;;;13.90;33.38;97893.64;2287931;84;25722;-75
2021/12/02 14:08:26;;;;;;;12.13;7.15;;;;;;;13.66;33.45;97904.34;2274259;86;25984;-75
2021/12/02 14:12:10;;;;;;;9.40;5.42;;;;;;;13.42;33.61;97924.67;2278490;85;26296;-75
2021/12/02 14:16:02;;;;;;;11.03;6.08;;;;;;;13.13;33.67;97912.36;2242074;87;25793;-74
2021/12/02 14:20:10;;;;;;;13.05;9.10;;;;;;;12.95;34.05;97909.28;2233092;86;25774;-75
2021/12/02 14:23:36;;;;;;;12.88;6.30;;;;;;;12.72;34.03;97919.04;2308043;83;25749;-75
2021/12/02 14:27:05;;;;;;;15.03;7.95;;;;;;;12.49;34.49;97909.13;2283611;84;25971;-76
2021/12/02 14:30:30;;;;;;;10.08;5.97;;;;;;;12.40;34.70;97921.55;2322636;83;26138;-74
2021/12/02 14:33:54;;;;;;;9.50;5.97;;;;;;;12.42;34.96;97933.69;2296677;83;25758;-76
2021/12/02 14:37:26;;;;;;;7.50;4.72;;;;;;;12.44;35.07;97933.64;2288519;86;25683;-78
2021/12/02 14:40:48;;;;;;;6.17;3.45;;;;;;;12.47;35.21;97938.80;2306035;84;26092;-75
2021/12/02 14:44:16;;;;;;;5.87;3.20;;;;;;;12.44;35.40;97944.95;2319447;84;25983;-78
2021/12/02 14:47:37;;;;;;;6.78;4.30;;;;;;;12.43;35.50;97953.69;2324935;83;25870;-76
2021/12/02 14:51:07;;;;;;;4.22;3.02;;;;;;;12.39;35.61;97965.11;2334877;84;25761;-80
2021/12/02 14:54:51;;;;;;;4.45;2.42;;;;;;;12.32;35.76;97978.31;2322262;84;25801;-78
2021/12/02 14:58:12;;;;;;;4.90;2.10;;;;;;;12.27;35.88;97979.73;2229267;88;25846;-76
2021/12/02 15:01:34;;;;;;;4.60;2.00;;;;;;;12.21;36.02;97974.64;2188101;88;30927;-79
2021/12/02 15:05:03;;;;;;;3.77;2.17;;;;;;;12.16;36.08;97985.20;2159533;90;25771;-74
2021/12/02 15:08:41;;;;;;;2.92;1.95;;;;;;;12.10;36.16;97985.77;2185745;88;26198;-75
2021/12/02 15:12:16;;;;;;;3.27;2.12;;;;;;;12.02;36.11;97975.05;2134410;90;26483;-75
2021/12/02 15:15:50;;;;;;;4.85;2.00;;;;;;;11.92;36.12;97994.85;2118454;92;26320;-77
2021/12/02 15:19:11;;;;;;;4.97;2.27;;;;;;;11.81;36.13;98002.41;2112723;91;25789;-76
2021/12/02 15:22:35;;;;;;;2.77;1.82;;;;;;;11.75;36.19;98016.88;2127050;91;31066;-76
2021/12/02 15:26:32;;;;;;;4.72;1.80;;;;;;;11.68;36.19;98018.34;2128730;91;25733;-78
2021/12/02 15:29:53;;;;;;;2.95;1.72;;;;;;;11.60;36.23;98019.77;2128740;91;25840;-76
2021/12/02 15:33:18;;;;;;;3.62;1.42;;;;;;;11.52;36.29;98029.05;2134528;92;31010;-75
2021/12/02 15:36:39;;;;;;;4.20;1.92;;;;;;;11.46;36.38;98045.25;2196698;88;25806;-77
2021/12/02 15:40:32;;;;;;;5.92;3.40;;;;;;;11.41;36.46;98049.70;2190165;88;31338;-77
2021/12/02 15:47:53;;;;;;;5.37;1.98;;;;;;;11.35;36.55;98042.83;2058483;95;26427;-77
2021/12/02 15:51:44;;;;;;;5.67;1.90;;;;;;;11.33;36.56;98056.33;2054762;93;26200;-77
2021/12/02 15:59:28;;;;;;;3.12;1.92;;;;;;;11.26;36.61;98066.00;2092624;92;26015;-78
2021/12/02 16:03:43;;;;;;;3.30;1.65;;;;;;;11.22;36.69;98070.00;2116434;92;25816;-78
2021/12/02 16:07:14;;;;;;;2.92;2.08;;;;;;;11.17;36.79;98068.78;2123921;91;26521;-78
2021/12/02 16:10:54;;;;;;;3.55;2.02;;;;;;;11.13;36.88;98077.51;2111277;93;25902;-78
2021/12/02 16:14:05;;;;;;;6.28;2.58;;;;;;;11.08;36.95;98088.02;2105947;93;25875;-77
2021/12/02 16:17:27;;;;;;;9.70;2.98;;;;;;;11.03;37.00;98094.18;2109908;89;26723;-76
2021/12/02 16:20:48;;;;;;;4.35;2.00;;;;;;;11.01;37.17;98107.70;2105285;92;26019;-76
2021/12/02 16:24:11;;;;;;;4.60;2.25;;;;;;;10.96;37.20;98110.35;2158965;87;25778;-77
2021/12/02 16:27:50;;;;;;;3.77;1.90;;;;;;;10.93;37.28;98109.53;2233600;87;26458;-77
2021/12/02 16:31:16;;;;;;;4.47;2.45;;;;;;;10.87;37.35;98109.20;2223479;86;26226;-78
2021/12/02 16:34:59;;;;;;;6.85;2.35;;;;;;;10.85;37.49;98126.14;2252085;86;25903;-78
2021/12/02 16:38:35;;;;;;;6.53;2.77;;;;;;;10.84;37.62;98130.95;2273296;86;25660;-78
2021/12/02 16:41:56;;;;;;;4.78;2.67;;;;;;;10.82;37.71;98138.36;2269489;86;25894;-78
2021/12/02 16:45:20;;;;;;;6.87;2.47;;;;;;;10.79;37.76;98151.42;2280040;85;25756;-77
2021/12/02 16:48:42;;;;;;;6.45;2.67;;;;;;;10.78;37.85;98147.97;2274996;86;25711;-79
2021/12/02 16:52:03;;;;;;;5.50;2.60;;;;;;;10.74;37.92;98155.41;2279625;86;25253;-78
2021/12/02 16:55:26;;;;;;;5.50;2.67;;;;;;;10.71;37.99;98168.47;2276001;86;26103;-78
2021/12/02 16:58:48;;;;;;;5.22;2.75;;;;;;;10.69;38.10;98168.92;2276111;86;25884;-78
2021/12/02 17:02:09;;;;;;;5.17;2.50;;;;;;;10.66;38.14;98181.13;2279160;86;29977;-80
2021/12/02 17:05:43;;;;;;;5.12;2.42;;;;;;;10.62;38.21;98177.25;2262677;86;25698;-79
2021/12/02 17:09:19;;;;;;;8.20;2.50;;;;;;;10.60;38.28;98189.90;2238488;86;26367;-79
2021/12/02 17:13:10;;;;;;;7.70;2.67;;;;;;;10.56;38.37;98190.79;2208798;88;25728;-78
2021/12/02 17:16:52;;;;;;;5.30;2.35;;;;;;;10.51;38.45;98190.00;2246698;87;25659;-79
2021/12/02 17:20:13;;;;;;;6.25;2.80;;;;;;;10.49;38.54;98194.34;2222143;88;25772;-78
2021/12/02 17:23:35;;;;;;;7.60;2.98;;;;;;;10.46;38.60;98192.66;2234245;88;25889;-79
2021/12/02 17:26:57;;;;;;;7.58;2.67;;;;;;;10.42;38.68;98193.55;2235251;87;25998;-78